Nearby METAR Reports

 

EGUW - Wattisham Raf, United Kingdom
Distance from station: SW 12mi, 19km
Updated: 26/08/2019 05:50
Haze, Clear
Haze, Clear
 Wind from SW
Wind: SW 2 mph , 4 km/h
Temperature: 16°C
Dew Point: 13°C
Humidity: 83%
Barometer: 1018 hPa
Summary: Haze
Clouds: Clear
Visibility: 3 miles , 5 km
2019/08/26 04:50 EGUW 260450Z AUTO 23002KT 5000 HZ NCD 16/13 Q1018
EGUL - Lakenheath Raf, United Kingdom
Distance from station: WNW 29mi, 47km
Updated: 26/08/2019 05:56
Clear
Clear
 Wind from calm
Wind: Calm
Temperature: 14°C
Dew Point: 11°C
Humidity: 82%
Barometer: 1017.9 hPa
Clouds: Clear
Visibility: 6 miles , 10 km
2019/08/26 04:56 EGUL 260456Z AUTO 00000KT 9999 CLR 14/11 A3006 RMK AO2 SLP182 T01350112 $
 
EGUN - Mildenhall Raf, United Kingdom
Distance from station: WNW 32mi, 51km
Updated: 26/08/2019 05:56
Clear
Clear
 Wind from ESE
Wind: ESE 3 mph , 6 km/h
Temperature: 15°C
Dew Point: 13°C
Humidity: 88%
Barometer: 1017.9 hPa
Clouds: Clear
Visibility: 6 miles , 10 km
2019/08/26 04:56 EGUN 260456Z AUTO 12003KT 9999 CLR 15/13 A3006 RMK AO2 SLP182 T01450132 $
EGSH - Norwich Wea Cntr, United Kingdom
Distance from station: N 32mi, 52km
Updated: 26/08/2019 06:20
Mist, Shallow, Fog, Partly cloudy
Mist, Shallow, Fog, Partly cloudy
 Wind from ENE
Wind: ENE 2 mph , 4 km/h
Temperature: 13°C
Dew Point: 13°C
Humidity: 100%
Barometer: 1019 hPa
Summary: Mist, Shallow, Fog
Clouds: Partly cloudy
Visibility: 2 miles , 3 km
2019/08/26 05:20 EGSH 260520Z 06002KT 3200 BR MIFG NSC 13/13 Q1019 NOSIG
 
EGYM - Marham Raf, United Kingdom
Distance from station: NW 39mi, 62km
Updated: 26/08/2019 05:50
Haze, Clear
Haze, Clear
 Wind from SE
Wind: SE 5 mph , 7 km/h
Temperature: 15°C
Dew Point: 12°C
Humidity: 82%
Barometer: 1018 hPa
Summary: Haze
Clouds: Clear
Visibility: 3 miles , 5 km
2019/08/26 04:50 EGYM 260450Z AUTO 14004KT 5000 HZ NCD 15/12 Q1018
EGSC - Cambridge, United Kingdom
Distance from station: W 43mi, 69km
Updated: 23/08/2019 17:50
NOT Current
Few Clouds
Few Clouds
 Wind from SSE
Wind: SSE 13 mph , 20 km/h
Temperature: 26°C
Dew Point: 15°C
Humidity: 51%
Barometer: 1022 hPa
Clouds: Few Clouds
Visibility: 6 miles , 10 km
Cloud details: Few Clouds 1463 m
2019/08/23 16:50 EGSC 231650Z 16011KT 9999 FEW048 26/15 Q1022
 
EGSS - Stansted Airport, United Kingdom
Distance from station: WSW 47mi, 76km
Updated: 26/08/2019 06:20
Haze, Clear
Haze, Clear
 Wind from varies
Wind: varies 2 mph , 4 km/h
Temperature: 14°C
Dew Point: 13°C
Humidity: 94%
Barometer: 1018 hPa
Summary: Haze
Clouds: Clear
Visibility: 3 miles , 4 km
2019/08/26 05:20 EGSS 260520Z AUTO VRB02KT 4100 HZ NCD 14/13 Q1018
EGMC - Southend-On-Sea, United Kingdom
Distance from station: SSW 50mi, 80km
Updated: 26/08/2019 06:20
Mist, Partly cloudy
Mist, Partly cloudy
 Wind from calm
Wind: Calm
Temperature: 13°C
Dew Point: 13°C
Humidity: 100%
Barometer: 1018 hPa
Summary: Mist
Clouds: Partly cloudy
Visibility: 2 miles , 4 km
2019/08/26 05:20 EGMC 260520Z 00000KT 4000 BR NSC 13/13 Q1018